sensor_id;sensor_type;location;lat;lon;timestamp;P1;durP1;ratioP1;P2;durP2;ratioP2
8592;SDS011;4334;49.982;8.398;2023-04-25T00:01:39;3.80;;;1.90;;
8592;SDS011;4334;49.982;8.398;2023-04-25T00:04:06;1.33;;;1.23;;
8592;SDS011;4334;49.982;8.398;2023-04-25T00:06:34;2.27;;;1.57;;
8592;SDS011;4334;49.982;8.398;2023-04-25T00:09:02;2.73;;;1.87;;
8592;SDS011;4334;49.982;8.398;2023-04-25T00:11:32;2.60;;;2.00;;
8592;SDS011;4334;49.982;8.398;2023-04-25T00:14:00;1.80;;;1.40;;
8592;SDS011;4334;49.982;8.398;2023-04-25T00:16:27;2.23;;;1.60;;
8592;SDS011;4334;49.982;8.398;2023-04-25T00:18:58;3.30;;;2.13;;
8592;SDS011;4334;49.982;8.398;2023-04-25T00:21:25;3.20;;;2.33;;
8592;SDS011;4334;49.982;8.398;2023-04-25T00:23:53;4.23;;;2.57;;
8592;SDS011;4334;49.982;8.398;2023-04-25T00:26:20;6.10;;;2.87;;
8592;SDS011;4334;49.982;8.398;2023-04-25T00:28:47;4.47;;;2.67;;
8592;SDS011;4334;49.982;8.398;2023-04-25T00:31:15;13.00;;;5.00;;
8592;SDS011;4334;49.982;8.398;2023-04-25T00:33:42;20.37;;;6.50;;
8592;SDS011;4334;49.982;8.398;2023-04-25T00:36:09;30.20;;;7.33;;
8592;SDS011;4334;49.982;8.398;2023-04-25T00:38:36;15.53;;;6.47;;
8592;SDS011;4334;49.982;8.398;2023-04-25T00:41:04;3.63;;;2.70;;
8592;SDS011;4334;49.982;8.398;2023-04-25T00:43:31;3.73;;;2.10;;
8592;SDS011;4334;49.982;8.398;2023-04-25T00:46:00;3.00;;;2.30;;
8592;SDS011;4334;49.982;8.398;2023-04-25T00:48:28;3.07;;;2.27;;
8592;SDS011;4334;49.982;8.398;2023-04-25T00:50:56;3.63;;;2.33;;
8592;SDS011;4334;49.982;8.398;2023-04-25T00:53:25;2.50;;;1.90;;
8592;SDS011;4334;49.982;8.398;2023-04-25T00:55:53;2.90;;;2.00;;
8592;SDS011;4334;49.982;8.398;2023-04-25T00:58:21;3.43;;;2.00;;
8592;SDS011;4334;49.982;8.398;2023-04-25T01:00:48;2.27;;;1.70;;
8592;SDS011;4334;49.982;8.398;2023-04-25T01:03:17;2.77;;;2.37;;
8592;SDS011;4334;49.982;8.398;2023-04-25T01:05:46;2.50;;;2.00;;
8592;SDS011;4334;49.982;8.398;2023-04-25T01:08:14;2.20;;;1.90;;
8592;SDS011;4334;49.982;8.398;2023-04-25T01:10:41;3.00;;;2.00;;
8592;SDS011;4334;49.982;8.398;2023-04-25T01:13:08;2.33;;;1.77;;
8592;SDS011;4334;49.982;8.398;2023-04-25T01:15:35;2.93;;;2.27;;
8592;SDS011;4334;49.982;8.398;2023-04-25T01:18:02;3.03;;;2.10;;
8592;SDS011;4334;49.982;8.398;2023-04-25T01:20:30;2.87;;;2.30;;
8592;SDS011;4334;49.982;8.398;2023-04-25T01:23:00;5.47;;;2.37;;
8592;SDS011;4334;49.982;8.398;2023-04-25T01:25:28;2.73;;;2.30;;
8592;SDS011;4334;49.982;8.398;2023-04-25T01:27:56;3.33;;;2.40;;
8592;SDS011;4334;49.982;8.398;2023-04-25T01:30:23;3.00;;;2.20;;
8592;SDS011;4334;49.982;8.398;2023-04-25T01:32:52;3.57;;;2.70;;
8592;SDS011;4334;49.982;8.398;2023-04-25T01:35:21;2.93;;;2.00;;
8592;SDS011;4334;49.982;8.398;2023-04-25T01:37:50;2.30;;;2.00;;
8592;SDS011;4334;49.982;8.398;2023-04-25T01:40:19;4.47;;;2.40;;
8592;SDS011;4334;49.982;8.398;2023-04-25T01:42:48;2.87;;;2.20;;
8592;SDS011;4334;49.982;8.398;2023-04-25T01:45:15;2.57;;;2.10;;
8592;SDS011;4334;49.982;8.398;2023-04-25T01:47:42;2.30;;;1.80;;
8592;SDS011;4334;49.982;8.398;2023-04-25T01:50:14;3.90;;;2.43;;
8592;SDS011;4334;49.982;8.398;2023-04-25T01:52:42;2.53;;;1.97;;
8592;SDS011;4334;49.982;8.398;2023-04-25T01:55:09;2.63;;;1.87;;
8592;SDS011;4334;49.982;8.398;2023-04-25T01:57:37;1.87;;;1.60;;
8592;SDS011;4334;49.982;8.398;2023-04-25T02:00:05;2.37;;;2.10;;
8592;SDS011;4334;49.982;8.398;2023-04-25T02:02:37;3.20;;;2.30;;
8592;SDS011;4334;49.982;8.398;2023-04-25T02:05:04;3.03;;;2.17;;
8592;SDS011;4334;49.982;8.398;2023-04-25T02:07:31;3.77;;;2.30;;
8592;SDS011;4334;49.982;8.398;2023-04-25T02:09:58;3.80;;;2.33;;
8592;SDS011;4334;49.982;8.398;2023-04-25T02:12:26;3.30;;;2.10;;
8592;SDS011;4334;49.982;8.398;2023-04-25T02:14:55;2.77;;;1.97;;
8592;SDS011;4334;49.982;8.398;2023-04-25T02:17:22;1.73;;;1.63;;
8592;SDS011;4334;49.982;8.398;2023-04-25T02:19:49;3.00;;;2.20;;
8592;SDS011;4334;49.982;8.398;2023-04-25T02:22:16;3.33;;;2.07;;
8592;SDS011;4334;49.982;8.398;2023-04-25T02:24:42;3.17;;;2.37;;
8592;SDS011;4334;49.982;8.398;2023-04-25T02:27:09;2.97;;;2.13;;
8592;SDS011;4334;49.982;8.398;2023-04-25T02:29:36;4.93;;;2.93;;
8592;SDS011;4334;49.982;8.398;2023-04-25T02:32:05;2.77;;;2.40;;
8592;SDS011;4334;49.982;8.398;2023-04-25T02:34:32;3.37;;;2.60;;
8592;SDS011;4334;49.982;8.398;2023-04-25T02:36:59;2.93;;;2.40;;
8592;SDS011;4334;49.982;8.398;2023-04-25T02:39:25;2.90;;;2.20;;
8592;SDS011;4334;49.982;8.398;2023-04-25T02:41:52;3.63;;;2.73;;
8592;SDS011;4334;49.982;8.398;2023-04-25T02:44:19;3.00;;;2.27;;
8592;SDS011;4334;49.982;8.398;2023-04-25T02:46:46;4.77;;;2.33;;
8592;SDS011;4334;49.982;8.398;2023-04-25T02:49:14;4.23;;;2.73;;
8592;SDS011;4334;49.982;8.398;2023-04-25T02:51:41;3.23;;;2.30;;
8592;SDS011;4334;49.982;8.398;2023-04-25T02:54:08;6.57;;;2.57;;
8592;SDS011;4334;49.982;8.398;2023-04-25T02:56:35;4.57;;;2.63;;
8592;SDS011;4334;49.982;8.398;2023-04-25T02:59:01;3.80;;;2.50;;
8592;SDS011;4334;49.982;8.398;2023-04-25T03:01:28;4.80;;;3.10;;
8592;SDS011;4334;49.982;8.398;2023-04-25T03:03:55;3.53;;;2.80;;
8592;SDS011;4334;49.982;8.398;2023-04-25T03:06:23;4.83;;;2.93;;
8592;SDS011;4334;49.982;8.398;2023-04-25T03:08:50;4.17;;;2.80;;
8592;SDS011;4334;49.982;8.398;2023-04-25T03:11:17;3.77;;;3.20;;
8592;SDS011;4334;49.982;8.398;2023-04-25T03:13:45;6.27;;;2.97;;
8592;SDS011;4334;49.982;8.398;2023-04-25T03:16:12;4.37;;;3.07;;
8592;SDS011;4334;49.982;8.398;2023-04-25T03:18:38;4.03;;;2.87;;
8592;SDS011;4334;49.982;8.398;2023-04-25T03:21:06;4.07;;;2.40;;
8592;SDS011;4334;49.982;8.398;2023-04-25T03:23:34;5.57;;;3.60;;
8592;SDS011;4334;49.982;8.398;2023-04-25T03:26:01;6.07;;;3.43;;
8592;SDS011;4334;49.982;8.398;2023-04-25T03:28:28;5.03;;;2.70;;
8592;SDS011;4334;49.982;8.398;2023-04-25T03:30:54;4.33;;;2.77;;
8592;SDS011;4334;49.982;8.398;2023-04-25T03:33:21;6.97;;;3.30;;
8592;SDS011;4334;49.982;8.398;2023-04-25T03:35:48;4.67;;;3.40;;
8592;SDS011;4334;49.982;8.398;2023-04-25T03:38:16;5.93;;;3.23;;
8592;SDS011;4334;49.982;8.398;2023-04-25T03:40:45;5.30;;;3.53;;
8592;SDS011;4334;49.982;8.398;2023-04-25T03:43:12;4.50;;;3.33;;
8592;SDS011;4334;49.982;8.398;2023-04-25T03:45:38;7.23;;;3.93;;
8592;SDS011;4334;49.982;8.398;2023-04-25T03:48:05;4.97;;;3.13;;
8592;SDS011;4334;49.982;8.398;2023-04-25T03:50:32;5.27;;;3.37;;
8592;SDS011;4334;49.982;8.398;2023-04-25T03:52:59;6.63;;;4.00;;
8592;SDS011;4334;49.982;8.398;2023-04-25T03:55:26;6.60;;;3.73;;
8592;SDS011;4334;49.982;8.398;2023-04-25T03:57:54;4.43;;;3.23;;
8592;SDS011;4334;49.982;8.398;2023-04-25T04:00:23;6.40;;;3.30;;
8592;SDS011;4334;49.982;8.398;2023-04-25T04:02:50;8.17;;;4.13;;
8592;SDS011;4334;49.982;8.398;2023-04-25T04:05:17;7.00;;;4.00;;
8592;SDS011;4334;49.982;8.398;2023-04-25T04:07:43;4.53;;;3.17;;
8592;SDS011;4334;49.982;8.398;2023-04-25T04:10:10;5.70;;;3.27;;
8592;SDS011;4334;49.982;8.398;2023-04-25T04:12:38;3.90;;;2.87;;
8592;SDS011;4334;49.982;8.398;2023-04-25T04:15:07;6.57;;;4.00;;
8592;SDS011;4334;49.982;8.398;2023-04-25T04:17:35;6.43;;;3.07;;
8592;SDS011;4334;49.982;8.398;2023-04-25T04:20:02;9.33;;;3.20;;
8592;SDS011;4334;49.982;8.398;2023-04-25T04:22:31;5.97;;;3.10;;
8592;SDS011;4334;49.982;8.398;2023-04-25T04:24:58;8.10;;;3.00;;
8592;SDS011;4334;49.982;8.398;2023-04-25T04:27:25;3.67;;;2.97;;
8592;SDS011;4334;49.982;8.398;2023-04-25T04:29:53;4.47;;;2.87;;
8592;SDS011;4334;49.982;8.398;2023-04-25T04:32:22;3.63;;;2.30;;
8592;SDS011;4334;49.982;8.398;2023-04-25T04:34:50;16.47;;;2.80;;
8592;SDS011;4334;49.982;8.398;2023-04-25T04:37:17;3.57;;;2.20;;
8592;SDS011;4334;49.982;8.398;2023-04-25T04:39:44;5.80;;;2.50;;
8592;SDS011;4334;49.982;8.398;2023-04-25T04:45:03;2.80;;;2.30;;
8592;SDS011;4334;49.982;8.398;2023-04-25T04:47:31;5.07;;;2.73;;
8592;SDS011;4334;49.982;8.398;2023-04-25T04:49:58;2.37;;;1.77;;
8592;SDS011;4334;49.982;8.398;2023-04-25T04:52:25;7.37;;;2.30;;
8592;SDS011;4334;49.982;8.398;2023-04-25T04:54:52;2.50;;;2.17;;
8592;SDS011;4334;49.982;8.398;2023-04-25T04:57:19;3.67;;;2.33;;
8592;SDS011;4334;49.982;8.398;2023-04-25T04:59:45;3.77;;;2.33;;
8592;SDS011;4334;49.982;8.398;2023-04-25T05:02:12;3.47;;;2.50;;
8592;SDS011;4334;49.982;8.398;2023-04-25T05:04:40;3.80;;;2.60;;
8592;SDS011;4334;49.982;8.398;2023-04-25T05:07:07;3.57;;;2.60;;
8592;SDS011;4334;49.982;8.398;2023-04-25T05:09:33;2.90;;;2.07;;
8592;SDS011;4334;49.982;8.398;2023-04-25T05:12:00;3.10;;;2.37;;
8592;SDS011;4334;49.982;8.398;2023-04-25T05:14:27;5.33;;;3.00;;
8592;SDS011;4334;49.982;8.398;2023-04-25T05:16:54;2.53;;;2.00;;
8592;SDS011;4334;49.982;8.398;2023-04-25T05:19:20;8.97;;;2.03;;
8592;SDS011;4334;49.982;8.398;2023-04-25T05:21:49;4.43;;;2.70;;
8592;SDS011;4334;49.982;8.398;2023-04-25T05:24:16;3.97;;;2.67;;
8592;SDS011;4334;49.982;8.398;2023-04-25T05:26:43;10.60;;;3.07;;
8592;SDS011;4334;49.982;8.398;2023-04-25T05:29:09;5.87;;;2.30;;
8592;SDS011;4334;49.982;8.398;2023-04-25T05:31:36;3.23;;;2.20;;
8592;SDS011;4334;49.982;8.398;2023-04-25T05:34:03;2.97;;;2.20;;
8592;SDS011;4334;49.982;8.398;2023-04-25T05:36:29;1.80;;;1.57;;
8592;SDS011;4334;49.982;8.398;2023-04-25T05:38:59;6.10;;;2.33;;
8592;SDS011;4334;49.982;8.398;2023-04-25T05:41:25;3.23;;;2.10;;
8592;SDS011;4334;49.982;8.398;2023-04-25T05:43:52;5.30;;;2.10;;
8592;SDS011;4334;49.982;8.398;2023-04-25T05:46:19;6.50;;;2.53;;
8592;SDS011;4334;49.982;8.398;2023-04-25T05:48:45;5.40;;;2.13;;
8592;SDS011;4334;49.982;8.398;2023-04-25T05:51:12;3.23;;;2.10;;
8592;SDS011;4334;49.982;8.398;2023-04-25T05:53:39;4.57;;;2.53;;
8592;SDS011;4334;49.982;8.398;2023-04-25T05:56:08;3.07;;;1.70;;
8592;SDS011;4334;49.982;8.398;2023-04-25T05:58:34;4.17;;;2.20;;
8592;SDS011;4334;49.982;8.398;2023-04-25T06:01:01;5.73;;;1.90;;
8592;SDS011;4334;49.982;8.398;2023-04-25T06:03:28;3.90;;;1.73;;
8592;SDS011;4334;49.982;8.398;2023-04-25T06:05:55;2.40;;;1.60;;
8592;SDS011;4334;49.982;8.398;2023-04-25T06:08:22;3.23;;;2.30;;
8592;SDS011;4334;49.982;8.398;2023-04-25T06:10:48;3.60;;;2.00;;
8592;SDS011;4334;49.982;8.398;2023-04-25T06:13:16;4.30;;;2.10;;
8592;SDS011;4334;49.982;8.398;2023-04-25T06:15:43;5.13;;;2.20;;
8592;SDS011;4334;49.982;8.398;2023-04-25T06:18:10;4.87;;;2.23;;
8592;SDS011;4334;49.982;8.398;2023-04-25T06:20:36;2.53;;;1.97;;
8592;SDS011;4334;49.982;8.398;2023-04-25T06:23:03;3.80;;;2.37;;
8592;SDS011;4334;49.982;8.398;2023-04-25T06:25:30;8.73;;;2.47;;
8592;SDS011;4334;49.982;8.398;2023-04-25T06:27:56;6.30;;;2.20;;
8592;SDS011;4334;49.982;8.398;2023-04-25T06:30:25;4.33;;;2.33;;
8592;SDS011;4334;49.982;8.398;2023-04-25T06:32:51;4.50;;;2.37;;
8592;SDS011;4334;49.982;8.398;2023-04-25T06:35:18;7.53;;;2.97;;
8592;SDS011;4334;49.982;8.398;2023-04-25T06:37:45;3.17;;;2.23;;
8592;SDS011;4334;49.982;8.398;2023-04-25T06:40:11;3.23;;;2.20;;
8592;SDS011;4334;49.982;8.398;2023-04-25T06:42:38;2.43;;;2.23;;
8592;SDS011;4334;49.982;8.398;2023-04-25T06:45:05;4.00;;;2.40;;
8592;SDS011;4334;49.982;8.398;2023-04-25T06:47:34;4.00;;;2.00;;
8592;SDS011;4334;49.982;8.398;2023-04-25T06:50:01;4.20;;;2.03;;
8592;SDS011;4334;49.982;8.398;2023-04-25T06:52:28;4.27;;;2.40;;
8592;SDS011;4334;49.982;8.398;2023-04-25T06:54:54;5.07;;;2.33;;
8592;SDS011;4334;49.982;8.398;2023-04-25T06:57:21;2.73;;;2.10;;
8592;SDS011;4334;49.982;8.398;2023-04-25T06:59:48;3.93;;;2.73;;
8592;SDS011;4334;49.982;8.398;2023-04-25T07:02:15;9.93;;;2.70;;
8592;SDS011;4334;49.982;8.398;2023-04-25T07:04:43;6.23;;;2.47;;
8592;SDS011;4334;49.982;8.398;2023-04-25T07:07:11;5.87;;;2.57;;
8592;SDS011;4334;49.982;8.398;2023-04-25T07:09:37;7.23;;;2.80;;
8592;SDS011;4334;49.982;8.398;2023-04-25T07:12:04;5.30;;;2.90;;
8592;SDS011;4334;49.982;8.398;2023-04-25T07:14:31;2.60;;;1.80;;
8592;SDS011;4334;49.982;8.398;2023-04-25T07:16:58;3.73;;;2.30;;
8592;SDS011;4334;49.982;8.398;2023-04-25T07:19:24;5.87;;;2.20;;
8592;SDS011;4334;49.982;8.398;2023-04-25T07:21:53;3.00;;;1.73;;
8592;SDS011;4334;49.982;8.398;2023-04-25T07:24:19;3.23;;;2.20;;
8592;SDS011;4334;49.982;8.398;2023-04-25T07:26:46;3.67;;;2.23;;
8592;SDS011;4334;49.982;8.398;2023-04-25T07:29:13;2.47;;;1.83;;
8592;SDS011;4334;49.982;8.398;2023-04-25T07:31:39;4.03;;;2.10;;
8592;SDS011;4334;49.982;8.398;2023-04-25T07:34:06;2.07;;;1.87;;
8592;SDS011;4334;49.982;8.398;2023-04-25T07:36:33;3.80;;;2.10;;
8592;SDS011;4334;49.982;8.398;2023-04-25T07:39:01;3.03;;;2.10;;
8592;SDS011;4334;49.982;8.398;2023-04-25T07:41:28;4.70;;;1.70;;
8592;SDS011;4334;49.982;8.398;2023-04-25T07:43:55;3.70;;;2.17;;
8592;SDS011;4334;49.982;8.398;2023-04-25T07:46:21;4.47;;;2.40;;
8592;SDS011;4334;49.982;8.398;2023-04-25T07:48:48;4.30;;;1.83;;
8592;SDS011;4334;49.982;8.398;2023-04-25T07:51:15;2.83;;;1.80;;
8592;SDS011;4334;49.982;8.398;2023-04-25T07:53:41;6.37;;;2.00;;
8592;SDS011;4334;49.982;8.398;2023-04-25T07:56:09;2.47;;;1.93;;
8592;SDS011;4334;49.982;8.398;2023-04-25T07:58:36;3.03;;;1.60;;
8592;SDS011;4334;49.982;8.398;2023-04-25T08:01:03;4.93;;;1.90;;
8592;SDS011;4334;49.982;8.398;2023-04-25T08:03:30;3.77;;;2.00;;
8592;SDS011;4334;49.982;8.398;2023-04-25T08:05:56;3.23;;;1.60;;
8592;SDS011;4334;49.982;8.398;2023-04-25T08:08:23;3.50;;;1.70;;
8592;SDS011;4334;49.982;8.398;2023-04-25T08:10:50;3.00;;;1.63;;
8592;SDS011;4334;49.982;8.398;2023-04-25T08:13:18;6.43;;;2.00;;
8592;SDS011;4334;49.982;8.398;2023-04-25T08:15:45;3.80;;;1.53;;
8592;SDS011;4334;49.982;8.398;2023-04-25T08:18:11;1.77;;;1.50;;
8592;SDS011;4334;49.982;8.398;2023-04-25T08:20:38;3.13;;;1.70;;
8592;SDS011;4334;49.982;8.398;2023-04-25T08:23:05;3.60;;;1.60;;
8592;SDS011;4334;49.982;8.398;2023-04-25T08:25:32;3.60;;;1.67;;
8592;SDS011;4334;49.982;8.398;2023-04-25T08:27:59;1.60;;;1.50;;
8592;SDS011;4334;49.982;8.398;2023-04-25T08:30:29;3.23;;;1.43;;
8592;SDS011;4334;49.982;8.398;2023-04-25T08:32:56;2.37;;;1.87;;
8592;SDS011;4334;49.982;8.398;2023-04-25T08:35:22;2.10;;;1.73;;
8592;SDS011;4334;49.982;8.398;2023-04-25T08:37:49;3.87;;;1.93;;
8592;SDS011;4334;49.982;8.398;2023-04-25T08:40:16;2.73;;;1.57;;
8592;SDS011;4334;49.982;8.398;2023-04-25T08:42:43;1.43;;;1.33;;
8592;SDS011;4334;49.982;8.398;2023-04-25T08:45:10;1.30;;;1.20;;
8592;SDS011;4334;49.982;8.398;2023-04-25T08:47:38;2.57;;;1.77;;
8592;SDS011;4334;49.982;8.398;2023-04-25T08:50:06;1.30;;;1.20;;
8592;SDS011;4334;49.982;8.398;2023-04-25T08:52:35;1.93;;;1.47;;
8592;SDS011;4334;49.982;8.398;2023-04-25T08:55:04;3.43;;;2.17;;
8592;SDS011;4334;49.982;8.398;2023-04-25T08:57:33;2.87;;;1.30;;
8592;SDS011;4334;49.982;8.398;2023-04-25T09:00:01;2.07;;;1.43;;
8592;SDS011;4334;49.982;8.398;2023-04-25T09:02:29;2.50;;;1.87;;
8592;SDS011;4334;49.982;8.398;2023-04-25T09:04:57;2.77;;;1.30;;
8592;SDS011;4334;49.982;8.398;2023-04-25T09:07:24;1.63;;;1.50;;
8592;SDS011;4334;49.982;8.398;2023-04-25T09:09:51;1.97;;;1.40;;
8592;SDS011;4334;49.982;8.398;2023-04-25T09:12:18;2.23;;;1.53;;
8592;SDS011;4334;49.982;8.398;2023-04-25T09:14:52;2.30;;;1.80;;
8592;SDS011;4334;49.982;8.398;2023-04-25T09:17:29;3.60;;;1.27;;
8592;SDS011;4334;49.982;8.398;2023-04-25T09:19:55;1.70;;;1.60;;
8592;SDS011;4334;49.982;8.398;2023-04-25T09:22:34;1.67;;;1.50;;
8592;SDS011;4334;49.982;8.398;2023-04-25T09:25:03;1.67;;;1.50;;
8592;SDS011;4334;49.982;8.398;2023-04-25T09:27:33;2.30;;;1.83;;
8592;SDS011;4334;49.982;8.398;2023-04-25T09:30:00;3.67;;;1.73;;
8592;SDS011;4334;49.982;8.398;2023-04-25T09:32:27;2.67;;;1.80;;
8592;SDS011;4334;49.982;8.398;2023-04-25T09:34:55;3.03;;;2.00;;
8592;SDS011;4334;49.982;8.398;2023-04-25T09:37:24;4.63;;;1.97;;
8592;SDS011;4334;49.982;8.398;2023-04-25T09:39:53;1.60;;;1.50;;
8592;SDS011;4334;49.982;8.398;2023-04-25T09:42:21;3.97;;;2.37;;
8592;SDS011;4334;49.982;8.398;2023-04-25T09:44:49;2.80;;;2.03;;
8592;SDS011;4334;49.982;8.398;2023-04-25T09:47:18;3.17;;;2.10;;
8592;SDS011;4334;49.982;8.398;2023-04-25T09:49:47;6.40;;;2.17;;
8592;SDS011;4334;49.982;8.398;2023-04-25T09:52:14;1.97;;;1.77;;
8592;SDS011;4334;49.982;8.398;2023-04-25T09:54:43;2.20;;;1.90;;
8592;SDS011;4334;49.982;8.398;2023-04-25T09:57:11;4.63;;;1.70;;
8592;SDS011;4334;49.982;8.398;2023-04-25T09:59:39;2.80;;;2.10;;
8592;SDS011;4334;49.982;8.398;2023-04-25T10:02:10;7.57;;;2.13;;
8592;SDS011;4334;49.982;8.398;2023-04-25T10:04:38;5.17;;;2.50;;
8592;SDS011;4334;49.982;8.398;2023-04-25T10:07:05;2.23;;;2.00;;
8592;SDS011;4334;49.982;8.398;2023-04-25T10:09:33;3.83;;;2.30;;
8592;SDS011;4334;49.982;8.398;2023-04-25T10:12:06;3.67;;;2.37;;
8592;SDS011;4334;49.982;8.398;2023-04-25T10:14:33;2.30;;;2.10;;
8592;SDS011;4334;49.982;8.398;2023-04-25T10:17:00;2.43;;;1.97;;
8592;SDS011;4334;49.982;8.398;2023-04-25T10:19:27;3.07;;;2.37;;
8592;SDS011;4334;49.982;8.398;2023-04-25T10:21:55;2.80;;;2.27;;
8592;SDS011;4334;49.982;8.398;2023-04-25T10:24:26;4.43;;;2.60;;
8592;SDS011;4334;49.982;8.398;2023-04-25T10:26:54;4.03;;;2.43;;
8592;SDS011;4334;49.982;8.398;2023-04-25T10:29:23;7.40;;;2.53;;
8592;SDS011;4334;49.982;8.398;2023-04-25T10:31:51;5.00;;;2.40;;
8592;SDS011;4334;49.982;8.398;2023-04-25T10:34:18;4.73;;;2.60;;
8592;SDS011;4334;49.982;8.398;2023-04-25T10:36:48;3.30;;;2.43;;
8592;SDS011;4334;49.982;8.398;2023-04-25T10:39:21;5.37;;;2.50;;
8592;SDS011;4334;49.982;8.398;2023-04-25T10:41:52;3.40;;;2.53;;
8592;SDS011;4334;49.982;8.398;2023-04-25T10:44:21;3.63;;;2.30;;
8592;SDS011;4334;49.982;8.398;2023-04-25T10:46:49;7.47;;;2.70;;
8592;SDS011;4334;49.982;8.398;2023-04-25T10:49:30;2.83;;;1.80;;
8592;SDS011;4334;49.982;8.398;2023-04-25T10:52:11;5.90;;;2.50;;
8592;SDS011;4334;49.982;8.398;2023-04-25T10:54:42;4.33;;;2.30;;
8592;SDS011;4334;49.982;8.398;2023-04-25T10:57:31;6.50;;;3.13;;
8592;SDS011;4334;49.982;8.398;2023-04-25T11:00:05;3.20;;;2.43;;
8592;SDS011;4334;49.982;8.398;2023-04-25T11:02:38;7.47;;;2.63;;
8592;SDS011;4334;49.982;8.398;2023-04-25T11:05:08;3.47;;;2.00;;
8592;SDS011;4334;49.982;8.398;2023-04-25T11:07:37;4.20;;;2.40;;
8592;SDS011;4334;49.982;8.398;2023-04-25T11:10:05;3.63;;;2.03;;
8592;SDS011;4334;49.982;8.398;2023-04-25T11:12:33;4.70;;;2.27;;
8592;SDS011;4334;49.982;8.398;2023-04-25T11:15:00;2.40;;;2.10;;
8592;SDS011;4334;49.982;8.398;2023-04-25T11:17:28;4.53;;;2.10;;
8592;SDS011;4334;49.982;8.398;2023-04-25T11:19:56;4.37;;;2.27;;
8592;SDS011;4334;49.982;8.398;2023-04-25T11:22:23;5.50;;;2.20;;
8592;SDS011;4334;49.982;8.398;2023-04-25T11:24:50;3.87;;;2.00;;
8592;SDS011;4334;49.982;8.398;2023-04-25T11:27:17;5.20;;;1.90;;
8592;SDS011;4334;49.982;8.398;2023-04-25T11:29:44;2.67;;;2.00;;
8592;SDS011;4334;49.982;8.398;2023-04-25T11:32:13;2.03;;;1.80;;
8592;SDS011;4334;49.982;8.398;2023-04-25T11:34:42;2.90;;;1.93;;
8592;SDS011;4334;49.982;8.398;2023-04-25T11:37:10;2.70;;;1.90;;
8592;SDS011;4334;49.982;8.398;2023-04-25T11:39:39;8.33;;;2.20;;
8592;SDS011;4334;49.982;8.398;2023-04-25T11:42:10;7.37;;;2.20;;
8592;SDS011;4334;49.982;8.398;2023-04-25T11:44:37;5.67;;;2.43;;
8592;SDS011;4334;49.982;8.398;2023-04-25T11:47:05;3.60;;;2.20;;
8592;SDS011;4334;49.982;8.398;2023-04-25T11:49:32;3.20;;;2.00;;
8592;SDS011;4334;49.982;8.398;2023-04-25T11:52:00;3.67;;;2.00;;
8592;SDS011;4334;49.982;8.398;2023-04-25T11:54:28;3.47;;;1.90;;
8592;SDS011;4334;49.982;8.398;2023-04-25T11:56:55;2.10;;;1.50;;
8592;SDS011;4334;49.982;8.398;2023-04-25T11:59:23;5.50;;;2.13;;
8592;SDS011;4334;49.982;8.398;2023-04-25T12:01:51;2.13;;;1.80;;
8592;SDS011;4334;49.982;8.398;2023-04-25T12:04:18;4.20;;;1.93;;
8592;SDS011;4334;49.982;8.398;2023-04-25T12:06:47;3.33;;;2.33;;
8592;SDS011;4334;49.982;8.398;2023-04-25T12:09:15;6.10;;;2.23;;
8592;SDS011;4334;49.982;8.398;2023-04-25T12:11:46;2.60;;;2.40;;
8592;SDS011;4334;49.982;8.398;2023-04-25T12:14:20;4.17;;;2.10;;
8592;SDS011;4334;49.982;8.398;2023-04-25T12:16:48;4.77;;;2.17;;
8592;SDS011;4334;49.982;8.398;2023-04-25T12:19:16;2.40;;;2.00;;
8592;SDS011;4334;49.982;8.398;2023-04-25T12:21:43;6.10;;;2.40;;
8592;SDS011;4334;49.982;8.398;2023-04-25T12:24:11;3.93;;;2.10;;
8592;SDS011;4334;49.982;8.398;2023-04-25T12:26:47;1.97;;;1.80;;
8592;SDS011;4334;49.982;8.398;2023-04-25T12:29:15;2.47;;;2.07;;
8592;SDS011;4334;49.982;8.398;2023-04-25T12:31:43;5.93;;;1.77;;
8592;SDS011;4334;49.982;8.398;2023-04-25T12:34:10;4.70;;;2.27;;
8592;SDS011;4334;49.982;8.398;2023-04-25T12:36:37;3.87;;;2.40;;
8592;SDS011;4334;49.982;8.398;2023-04-25T12:39:04;2.70;;;2.00;;
8592;SDS011;4334;49.982;8.398;2023-04-25T12:41:31;3.20;;;2.00;;
8592;SDS011;4334;49.982;8.398;2023-04-25T12:43:59;5.10;;;2.33;;
8592;SDS011;4334;49.982;8.398;2023-04-25T12:46:26;2.80;;;1.80;;
8592;SDS011;4334;49.982;8.398;2023-04-25T12:48:55;5.43;;;2.17;;
8592;SDS011;4334;49.982;8.398;2023-04-25T12:51:22;5.67;;;2.00;;
8592;SDS011;4334;49.982;8.398;2023-04-25T12:53:50;3.80;;;2.17;;
8592;SDS011;4334;49.982;8.398;2023-04-25T12:56:18;4.60;;;1.97;;
8592;SDS011;4334;49.982;8.398;2023-04-25T12:58:45;5.27;;;1.70;;
8592;SDS011;4334;49.982;8.398;2023-04-25T13:01:14;3.83;;;1.80;;
8592;SDS011;4334;49.982;8.398;2023-04-25T13:03:41;4.37;;;2.10;;
8592;SDS011;4334;49.982;8.398;2023-04-25T13:06:08;3.00;;;1.83;;
8592;SDS011;4334;49.982;8.398;2023-04-25T13:08:35;2.43;;;1.57;;
8592;SDS011;4334;49.982;8.398;2023-04-25T13:11:03;5.93;;;2.20;;
8592;SDS011;4334;49.982;8.398;2023-04-25T13:13:30;2.73;;;1.70;;
8592;SDS011;4334;49.982;8.398;2023-04-25T13:15:59;2.17;;;1.40;;
8592;SDS011;4334;49.982;8.398;2023-04-25T13:18:28;3.50;;;1.70;;
8592;SDS011;4334;49.982;8.398;2023-04-25T13:20:55;2.50;;;1.70;;
8592;SDS011;4334;49.982;8.398;2023-04-25T13:23:23;3.40;;;1.30;;
8592;SDS011;4334;49.982;8.398;2023-04-25T13:25:51;2.27;;;1.80;;
8592;SDS011;4334;49.982;8.398;2023-04-25T13:28:17;6.17;;;1.87;;
8592;SDS011;4334;49.982;8.398;2023-04-25T13:30:44;2.70;;;1.90;;
8592;SDS011;4334;49.982;8.398;2023-04-25T13:33:12;2.37;;;1.70;;
8592;SDS011;4334;49.982;8.398;2023-04-25T13:35:41;1.70;;;1.57;;
8592;SDS011;4334;49.982;8.398;2023-04-25T13:38:08;2.40;;;1.57;;
8592;SDS011;4334;49.982;8.398;2023-04-25T13:40:35;1.83;;;1.57;;
8592;SDS011;4334;49.982;8.398;2023-04-25T13:43:02;1.97;;;1.47;;
8592;SDS011;4334;49.982;8.398;2023-04-25T13:45:28;2.17;;;1.63;;
8592;SDS011;4334;49.982;8.398;2023-04-25T13:47:55;3.97;;;2.03;;
8592;SDS011;4334;49.982;8.398;2023-04-25T13:50:22;0.97;;;0.93;;
8592;SDS011;4334;49.982;8.398;2023-04-25T13:52:50;1.47;;;1.20;;
8592;SDS011;4334;49.982;8.398;2023-04-25T13:55:17;2.07;;;1.70;;
8592;SDS011;4334;49.982;8.398;2023-04-25T13:57:43;5.33;;;2.13;;
8592;SDS011;4334;49.982;8.398;2023-04-25T14:00:11;3.97;;;2.20;;
8592;SDS011;4334;49.982;8.398;2023-04-25T14:02:38;5.50;;;1.70;;
8592;SDS011;4334;49.982;8.398;2023-04-25T14:05:05;4.37;;;1.73;;
8592;SDS011;4334;49.982;8.398;2023-04-25T14:07:34;3.10;;;1.67;;
8592;SDS011;4334;49.982;8.398;2023-04-25T14:10:03;4.30;;;1.97;;
8592;SDS011;4334;49.982;8.398;2023-04-25T14:12:31;9.80;;;2.10;;
8592;SDS011;4334;49.982;8.398;2023-04-25T14:14:59;1.83;;;1.70;;
8592;SDS011;4334;49.982;8.398;2023-04-25T14:17:26;2.37;;;1.83;;
8592;SDS011;4334;49.982;8.398;2023-04-25T14:19:53;2.43;;;1.50;;
8592;SDS011;4334;49.982;8.398;2023-04-25T14:22:19;1.77;;;1.57;;
8592;SDS011;4334;49.982;8.398;2023-04-25T14:24:46;5.80;;;2.23;;
8592;SDS011;4334;49.982;8.398;2023-04-25T14:27:14;11.30;;;1.80;;
8592;SDS011;4334;49.982;8.398;2023-04-25T14:29:41;2.77;;;1.83;;
8592;SDS011;4334;49.982;8.398;2023-04-25T14:32:08;3.00;;;1.77;;
8592;SDS011;4334;49.982;8.398;2023-04-25T14:34:35;2.20;;;1.73;;
8592;SDS011;4334;49.982;8.398;2023-04-25T14:37:02;1.83;;;1.60;;
8592;SDS011;4334;49.982;8.398;2023-04-25T14:39:28;2.77;;;1.30;;
8592;SDS011;4334;49.982;8.398;2023-04-25T14:41:55;1.87;;;1.47;;
8592;SDS011;4334;49.982;8.398;2023-04-25T14:44:24;2.23;;;1.90;;
8592;SDS011;4334;49.982;8.398;2023-04-25T14:46:50;4.37;;;1.60;;
8592;SDS011;4334;49.982;8.398;2023-04-25T14:49:17;3.40;;;1.70;;
8592;SDS011;4334;49.982;8.398;2023-04-25T14:51:44;1.50;;;1.40;;
8592;SDS011;4334;49.982;8.398;2023-04-25T14:54:11;7.70;;;1.77;;
8592;SDS011;4334;49.982;8.398;2023-04-25T14:56:38;2.83;;;1.67;;
8592;SDS011;4334;49.982;8.398;2023-04-25T14:59:04;5.70;;;1.90;;
8592;SDS011;4334;49.982;8.398;2023-04-25T15:01:33;3.00;;;1.50;;
8592;SDS011;4334;49.982;8.398;2023-04-25T15:03:59;4.13;;;1.93;;
8592;SDS011;4334;49.982;8.398;2023-04-25T15:06:26;1.90;;;1.50;;
8592;SDS011;4334;49.982;8.398;2023-04-25T15:08:55;6.97;;;1.83;;
8592;SDS011;4334;49.982;8.398;2023-04-25T15:11:22;2.40;;;1.70;;
8592;SDS011;4334;49.982;8.398;2023-04-25T15:13:49;5.30;;;1.67;;
8592;SDS011;4334;49.982;8.398;2023-04-25T15:16:15;1.50;;;1.40;;
8592;SDS011;4334;49.982;8.398;2023-04-25T15:18:43;3.40;;;1.30;;
8592;SDS011;4334;49.982;8.398;2023-04-25T15:21:10;5.00;;;2.00;;